createdAt,value
2022-10-09T00:01:23.653Z,9.80
2022-10-09T00:03:52.536Z,9.07
2022-10-09T00:06:22.267Z,9.18
2022-10-09T00:08:49.201Z,8.00
2022-10-09T00:11:18.403Z,12.23
2022-10-09T00:13:45.222Z,9.20
2022-10-09T00:16:14.168Z,12.90
2022-10-09T00:18:41.172Z,14.10
2022-10-09T00:21:19.481Z,14.70
2022-10-09T00:23:50.389Z,11.30
2022-10-09T00:26:17.720Z,12.27
2022-10-09T00:28:44.197Z,11.02
2022-10-09T00:31:11.985Z,8.70
2022-10-09T00:33:38.936Z,8.93
2022-10-09T00:36:07.119Z,12.52
2022-10-09T00:38:34.466Z,12.55
2022-10-09T00:41:00.840Z,10.13
2022-10-09T00:44:00.632Z,10.50
2022-10-09T00:46:36.424Z,15.05
2022-10-09T00:49:13.493Z,8.75
2022-10-09T00:51:42.019Z,13.95
2022-10-09T00:54:14.085Z,12.23
2022-10-09T00:56:40.607Z,8.65
2022-10-09T00:59:07.198Z,7.95
2022-10-09T01:01:33.910Z,11.77
2022-10-09T01:04:00.309Z,10.02
2022-10-09T01:06:32.063Z,17.20
2022-10-09T01:09:57.113Z,17.00
2022-10-09T01:12:42.041Z,15.30
2022-10-09T01:15:17.823Z,19.90
2022-10-09T01:17:56.090Z,16.15
2022-10-09T01:20:31.585Z,10.70
2022-10-09T01:23:16.843Z,12.65
2022-10-09T01:25:56.701Z,14.15
2022-10-09T01:28:28.953Z,13.02
2022-10-09T01:31:00.029Z,20.13
2022-10-09T01:33:28.837Z,10.52
2022-10-09T01:35:55.694Z,14.15
2022-10-09T01:38:24.191Z,14.18
2022-10-09T01:40:53.379Z,13.10
2022-10-09T01:43:20.491Z,18.63
2022-10-09T01:45:48.956Z,8.95
2022-10-09T01:48:24.933Z,15.48
2022-10-09T01:50:57.774Z,10.80
2022-10-09T01:53:25.479Z,16.55
2022-10-09T01:56:11.317Z,13.70
2022-10-09T01:58:44.186Z,13.80
2022-10-09T02:01:17.945Z,8.95
2022-10-09T02:03:48.302Z,14.88
2022-10-09T02:06:16.685Z,6.82
2022-10-09T02:08:45.375Z,12.35
2022-10-09T02:11:14.783Z,7.70
2022-10-09T02:13:42.090Z,8.65
2022-10-09T02:16:21.535Z,10.00
2022-10-09T02:19:03.920Z,10.13
2022-10-09T02:21:46.338Z,8.93
2022-10-09T02:24:20.024Z,10.90
2022-10-09T02:26:46.804Z,7.65
2022-10-09T02:29:14.700Z,9.68
2022-10-09T02:31:43.043Z,11.05
2022-10-09T02:34:12.885Z,11.15
2022-10-09T02:36:39.903Z,12.30
2022-10-09T02:39:07.068Z,13.00
2022-10-09T02:41:33.815Z,11.48
2022-10-09T02:44:00.440Z,11.52
2022-10-09T02:46:27.293Z,13.30
2022-10-09T02:48:54.015Z,9.10
2022-10-09T02:51:20.503Z,13.18
2022-10-09T02:53:46.852Z,12.63
2022-10-09T02:56:13.729Z,13.60
2022-10-09T02:58:40.563Z,10.90
2022-10-09T03:01:07.054Z,8.90
2022-10-09T03:03:33.763Z,12.73
2022-10-09T03:06:14.221Z,14.50
2022-10-09T03:08:42.976Z,15.80
2022-10-09T03:11:10.152Z,12.75
2022-10-09T03:13:37.618Z,6.15
2022-10-09T03:16:09.397Z,6.57
2022-10-09T03:18:36.563Z,9.10
2022-10-09T03:21:11.487Z,11.65
2022-10-09T03:23:38.230Z,9.95
2022-10-09T03:26:07.598Z,8.13
2022-10-09T03:28:39.104Z,9.30
2022-10-09T03:31:06.649Z,9.68
2022-10-09T03:33:34.888Z,13.15
2022-10-09T03:36:02.058Z,12.05
2022-10-09T03:38:28.567Z,9.60
2022-10-09T03:40:55.010Z,9.18
2022-10-09T03:43:21.484Z,7.25
2022-10-09T03:45:47.881Z,6.88
2022-10-09T03:48:14.548Z,9.73
2022-10-09T03:50:41.529Z,9.18
2022-10-09T03:53:09.732Z,8.70
2022-10-09T03:55:36.281Z,8.77
2022-10-09T03:58:02.804Z,7.38
2022-10-09T04:00:29.711Z,6.63
2022-10-09T04:02:56.264Z,7.63
2022-10-09T04:05:22.728Z,7.75
2022-10-09T04:07:49.374Z,9.35
2022-10-09T04:10:16.111Z,8.50
2022-10-09T04:12:42.694Z,5.40
2022-10-09T04:15:09.699Z,5.47
2022-10-09T04:17:36.123Z,11.50
2022-10-09T04:20:02.860Z,6.63
2022-10-09T04:22:29.296Z,7.22
2022-10-09T04:24:55.738Z,6.47
2022-10-09T04:27:22.097Z,8.18
2022-10-09T04:29:48.490Z,8.13
2022-10-09T04:32:14.944Z,7.82
2022-10-09T04:34:41.303Z,8.48
2022-10-09T04:37:07.804Z,5.22
2022-10-09T04:39:34.172Z,7.75
2022-10-09T04:42:00.533Z,7.43
2022-10-09T04:44:27.015Z,8.18
2022-10-09T04:46:53.430Z,8.13
2022-10-09T04:49:19.863Z,7.07
2022-10-09T04:51:46.194Z,7.28
2022-10-09T04:54:13.372Z,9.05
2022-10-09T04:56:39.818Z,9.07
2022-10-09T04:59:06.226Z,7.03
2022-10-09T05:01:37.845Z,12.15
2022-10-09T05:04:04.796Z,11.18
2022-10-09T05:06:31.175Z,8.90
2022-10-09T05:08:57.605Z,7.57
2022-10-09T05:11:25.748Z,15.15
2022-10-09T05:13:54.728Z,11.93
2022-10-09T05:16:27.226Z,8.15
2022-10-09T05:18:56.144Z,9.15
2022-10-09T05:21:22.809Z,8.90
2022-10-09T05:23:49.296Z,13.98
2022-10-09T05:26:18.395Z,11.63
2022-10-09T05:28:49.124Z,7.05
2022-10-09T05:31:24.568Z,10.23
2022-10-09T05:33:51.636Z,11.30
2022-10-09T05:36:18.352Z,10.57
2022-10-09T05:38:45.562Z,8.30
2022-10-09T05:41:15.124Z,8.93
2022-10-09T05:43:43.351Z,11.23
2022-10-09T05:46:15.329Z,5.90
2022-10-09T05:48:43.634Z,10.60
2022-10-09T05:51:11.859Z,13.90
2022-10-09T05:53:40.141Z,9.25
2022-10-09T05:56:19.127Z,8.50
2022-10-09T05:58:53.525Z,10.65
2022-10-09T06:01:21.808Z,7.57
2022-10-09T06:03:50.716Z,8.00
2022-10-09T06:06:18.531Z,8.02
2022-10-09T06:08:45.366Z,9.60
2022-10-09T06:11:14.507Z,9.60
2022-10-09T06:13:41.884Z,15.18
2022-10-09T06:16:08.733Z,11.45
2022-10-09T06:18:35.129Z,13.45
2022-10-09T06:21:02.870Z,9.00
2022-10-09T06:23:29.964Z,8.18
2022-10-09T06:25:59.294Z,10.70
2022-10-09T06:28:25.911Z,9.63
2022-10-09T06:30:52.324Z,8.95
2022-10-09T06:33:18.863Z,12.68
2022-10-09T06:35:45.334Z,9.38
2022-10-09T06:38:11.835Z,11.07
2022-10-09T06:40:38.542Z,9.85
2022-10-09T06:43:05.428Z,14.02
2022-10-09T06:45:36.615Z,11.98
2022-10-09T06:48:03.086Z,11.75
2022-10-09T06:50:29.631Z,10.95
2022-10-09T06:52:56.579Z,12.35
2022-10-09T06:55:27.849Z,9.73
2022-10-09T06:57:55.042Z,11.18
2022-10-09T07:00:21.635Z,7.93
2022-10-09T07:02:48.379Z,11.85
2022-10-09T07:05:15.418Z,12.23
2022-10-09T07:07:42.457Z,13.15
2022-10-09T07:10:09.825Z,12.25
2022-10-09T07:12:36.978Z,12.73
2022-10-09T07:15:05.637Z,7.85
2022-10-09T07:17:32.483Z,14.00
2022-10-09T07:19:58.811Z,11.68
2022-10-09T07:22:27.096Z,12.15
2022-10-09T07:24:53.746Z,14.27
2022-10-09T07:27:20.176Z,14.15
2022-10-09T07:29:47.553Z,15.02
2022-10-09T07:32:13.928Z,16.60
2022-10-09T07:34:40.283Z,12.85
2022-10-09T07:37:06.776Z,10.55
2022-10-09T07:39:34.821Z,18.67
2022-10-09T07:42:02.099Z,13.05
2022-10-09T07:44:29.767Z,10.65
2022-10-09T07:46:56.092Z,12.23
2022-10-09T07:49:22.507Z,21.05
2022-10-09T07:51:49.195Z,12.60
2022-10-09T07:54:15.817Z,12.43
2022-10-09T07:56:42.330Z,14.25
2022-10-09T07:59:13.057Z,15.50
2022-10-09T08:01:39.667Z,13.23
2022-10-09T08:04:06.121Z,14.43
2022-10-09T08:06:32.763Z,8.60
2022-10-09T08:09:01.049Z,21.90
2022-10-09T08:11:29.099Z,14.70
2022-10-09T08:13:55.674Z,15.88
2022-10-09T08:16:23.899Z,13.73
2022-10-09T08:18:54.442Z,15.18
2022-10-09T08:21:20.970Z,12.02
2022-10-09T08:23:47.408Z,12.98
2022-10-09T08:26:18.867Z,13.20
2022-10-09T08:28:50.796Z,17.83
2022-10-09T08:31:17.645Z,15.70
2022-10-09T08:33:44.486Z,12.55
2022-10-09T08:36:14.332Z,14.73
2022-10-09T08:38:48.667Z,15.80
2022-10-09T08:41:29.121Z,11.80
2022-10-09T08:44:05.982Z,14.27
2022-10-09T08:47:00.339Z,14.02
2022-10-09T08:49:34.489Z,14.65
2022-10-09T08:52:13.915Z,13.13
2022-10-09T08:54:40.301Z,12.70
2022-10-09T08:57:13.863Z,19.45
2022-10-09T08:59:40.680Z,15.65
2022-10-09T09:02:20.619Z,15.55
2022-10-09T09:05:29.067Z,10.90
2022-10-09T09:08:05.356Z,13.90
2022-10-09T09:10:55.050Z,10.55
2022-10-09T09:13:45.426Z,14.13
2022-10-09T09:16:24.225Z,9.45
2022-10-09T09:19:31.553Z,11.07
2022-10-09T09:21:58.804Z,12.35
2022-10-09T09:24:38.253Z,13.38
2022-10-09T09:27:12.860Z,11.50
2022-10-09T09:30:01.725Z,10.00
2022-10-09T09:32:30.353Z,11.57
2022-10-09T09:35:08.188Z,15.27
2022-10-09T09:37:34.736Z,12.82
2022-10-09T09:40:35.559Z,16.83
2022-10-09T09:42:48.418Z,12.10
2022-10-09T09:45:20.592Z,13.25
2022-10-09T09:47:51.785Z,10.00
2022-10-09T09:50:50.148Z,8.25
2022-10-09T09:53:37.631Z,12.25
2022-10-09T09:56:04.682Z,13.70
2022-10-09T09:58:43.507Z,15.18
2022-10-09T10:01:39.180Z,10.75
2022-10-09T10:04:19.841Z,8.93
2022-10-09T10:06:46.295Z,11.48
2022-10-09T10:09:16.037Z,6.90
2022-10-09T10:12:03.847Z,11.90
2022-10-09T10:14:31.570Z,10.60
2022-10-09T10:17:01.131Z,8.60
2022-10-09T10:19:35.222Z,8.93
2022-10-09T10:22:07.794Z,7.25
2022-10-09T10:24:41.510Z,8.18
2022-10-09T10:27:25.549Z,9.77
2022-10-09T10:29:58.113Z,9.27
2022-10-09T10:32:36.034Z,11.43
2022-10-09T10:35:04.220Z,8.38
2022-10-09T10:37:50.075Z,8.80
2022-10-09T10:40:24.576Z,11.07
2022-10-09T10:43:15.350Z,10.80
2022-10-09T10:45:55.820Z,6.25
2022-10-09T10:48:28.594Z,7.53
2022-10-09T10:51:19.768Z,12.63
2022-10-09T10:54:13.041Z,11.43
2022-10-09T10:56:48.913Z,7.82
2022-10-09T10:59:37.668Z,7.63
2022-10-09T11:02:17.630Z,10.32
2022-10-09T11:04:46.964Z,7.88
2022-10-09T11:08:01.902Z,13.68
2022-10-09T11:10:59.310Z,9.38
2022-10-09T11:13:52.057Z,11.73
2022-10-09T11:16:46.440Z,8.35
2022-10-09T11:19:45.406Z,7.38
2022-10-09T11:22:30.975Z,8.10
2022-10-09T11:25:12.683Z,9.77
2022-10-09T11:28:01.087Z,8.82
2022-10-09T11:30:33.459Z,12.82
2022-10-09T11:33:10.769Z,10.88
2022-10-09T11:35:51.952Z,10.68
2022-10-09T11:38:30.444Z,6.15
2022-10-09T11:40:58.351Z,10.05
2022-10-09T11:43:24.775Z,8.93
2022-10-09T11:45:56.269Z,6.47
2022-10-09T11:48:44.700Z,8.02
2022-10-09T11:51:38.366Z,5.95
2022-10-09T11:54:11.448Z,9.70
2022-10-09T11:56:37.798Z,8.23
2022-10-09T11:59:06.887Z,7.45
2022-10-09T12:01:44.439Z,6.50
2022-10-09T12:04:14.500Z,6.72
2022-10-09T12:06:54.388Z,6.47
2022-10-09T12:09:32.652Z,6.15
2022-10-09T12:12:09.031Z,8.73
2022-10-09T12:14:37.763Z,7.50
2022-10-09T12:17:23.704Z,7.38
2022-10-09T12:19:55.351Z,6.65
2022-10-09T12:22:56.425Z,6.18
2022-10-09T12:25:43.360Z,9.07
2022-10-09T12:28:28.556Z,8.00
2022-10-09T12:30:57.657Z,8.25
2022-10-09T12:33:30.357Z,6.22
2022-10-09T12:36:14.033Z,6.25
2022-10-09T12:38:41.751Z,5.25
2022-10-09T12:41:20.831Z,4.85
2022-10-09T12:43:51.025Z,7.68
2022-10-09T12:46:35.878Z,6.22
2022-10-09T12:49:05.372Z,6.78
2022-10-09T12:51:33.571Z,5.30
2022-10-09T12:54:07.572Z,6.28
2022-10-09T12:56:38.317Z,10.73
2022-10-09T12:59:06.688Z,7.63
2022-10-09T13:01:34.292Z,4.38
2022-10-09T13:04:05.895Z,5.68
2022-10-09T13:06:36.155Z,5.47
2022-10-09T13:09:06.028Z,6.68
2022-10-09T13:11:37.970Z,7.03
2022-10-09T13:14:05.076Z,6.05
2022-10-09T13:16:42.714Z,9.95
2022-10-09T13:19:27.742Z,8.70
2022-10-09T13:22:25.290Z,10.85
2022-10-09T13:24:54.121Z,5.85
2022-10-09T13:27:27.377Z,4.20
2022-10-09T13:29:54.413Z,6.18
2022-10-09T13:32:20.905Z,8.35
2022-10-09T13:34:47.397Z,7.25
2022-10-09T13:37:15.448Z,8.95
2022-10-09T13:39:42.207Z,9.13
2022-10-09T13:42:13.870Z,6.65
2022-10-09T13:44:40.240Z,7.30
2022-10-09T13:47:06.590Z,7.93
2022-10-09T13:49:33.052Z,6.13
2022-10-09T13:51:59.534Z,7.13
2022-10-09T13:54:26.133Z,9.25
2022-10-09T13:56:52.656Z,5.57
2022-10-09T13:59:19.020Z,5.82
2022-10-09T14:01:46.049Z,9.15
2022-10-09T14:04:12.755Z,6.60
2022-10-09T14:06:39.226Z,5.78
2022-10-09T14:09:05.617Z,7.47
2022-10-09T14:11:33.174Z,7.05
2022-10-09T14:14:00.539Z,7.57
2022-10-09T14:16:29.611Z,6.18
2022-10-09T14:19:00.253Z,6.43
2022-10-09T14:21:27.170Z,10.50
2022-10-09T14:23:58.910Z,7.00
2022-10-09T14:26:26.396Z,5.68
2022-10-09T14:28:53.923Z,8.25
2022-10-09T14:31:20.584Z,6.47
2022-10-09T14:33:48.484Z,7.28
2022-10-09T14:36:22.191Z,4.57
2022-10-09T14:38:49.253Z,6.38
2022-10-09T14:41:17.886Z,5.05
2022-10-09T14:43:51.785Z,9.35
2022-10-09T14:46:18.241Z,8.27
2022-10-09T14:48:48.444Z,10.98
2022-10-09T14:51:17.890Z,4.18
2022-10-09T14:53:45.071Z,9.05
2022-10-09T14:56:14.653Z,5.43
2022-10-09T14:58:41.733Z,6.65
2022-10-09T15:01:12.681Z,10.43
2022-10-09T15:03:39.189Z,4.45
2022-10-09T15:06:07.445Z,3.92
2022-10-09T15:08:36.067Z,5.75
2022-10-09T15:11:03.067Z,7.90
2022-10-09T15:13:29.977Z,7.80
2022-10-09T15:16:05.037Z,4.55
2022-10-09T15:18:31.467Z,6.68
2022-10-09T15:20:59.560Z,6.50
2022-10-09T15:23:27.024Z,5.75
2022-10-09T15:25:55.693Z,6.95
2022-10-09T15:28:22.589Z,5.53
2022-10-09T15:30:59.060Z,7.30
2022-10-09T15:33:26.074Z,3.45
2022-10-09T15:35:53.397Z,8.95
2022-10-09T15:38:22.608Z,8.07
2022-10-09T15:40:59.227Z,5.97
2022-10-09T15:43:27.876Z,6.18
2022-10-09T15:46:02.495Z,7.15
2022-10-09T15:48:29.180Z,8.95
2022-10-09T15:50:55.628Z,5.95
2022-10-09T15:53:24.716Z,7.47
2022-10-09T15:55:52.922Z,8.23
2022-10-09T15:58:19.947Z,7.53
2022-10-09T16:00:48.581Z,6.65
2022-10-09T16:03:17.208Z,5.80
2022-10-09T16:05:48.362Z,10.20
2022-10-09T16:08:16.380Z,6.28
2022-10-09T16:10:49.308Z,5.72
2022-10-09T16:13:16.295Z,6.20
2022-10-09T16:15:44.732Z,9.88
2022-10-09T16:18:11.293Z,4.35
2022-10-09T16:20:39.249Z,7.45
2022-10-09T16:23:06.491Z,6.13
2022-10-09T16:25:33.331Z,6.15
2022-10-09T16:27:59.979Z,5.05
2022-10-09T16:30:27.453Z,8.23
2022-10-09T16:32:53.961Z,8.35
2022-10-09T16:35:21.630Z,11.38
2022-10-09T16:37:48.180Z,7.07
2022-10-09T16:40:14.624Z,8.52
2022-10-09T16:42:41.063Z,7.28
2022-10-09T16:45:08.091Z,9.63
2022-10-09T16:47:34.640Z,5.88
2022-10-09T16:50:01.059Z,13.88
2022-10-09T16:52:27.431Z,10.07
2022-10-09T16:54:57.076Z,12.85
2022-10-09T16:57:25.949Z,11.25
2022-10-09T16:59:52.439Z,15.77
2022-10-09T17:02:18.839Z,10.23
2022-10-09T17:04:46.029Z,13.98
2022-10-09T17:07:12.856Z,11.35
2022-10-09T17:09:40.431Z,10.85
2022-10-09T17:12:10.352Z,6.57
2022-10-09T17:14:37.800Z,7.30
2022-10-09T17:17:06.275Z,8.43
2022-10-09T17:19:32.910Z,9.60
2022-10-09T17:22:00.673Z,6.63
2022-10-09T17:24:28.348Z,11.10
2022-10-09T17:26:55.676Z,11.07
2022-10-09T17:29:22.565Z,7.53
2022-10-09T17:31:49.073Z,7.45
2022-10-09T17:34:15.901Z,10.43
2022-10-09T17:36:43.992Z,16.20
2022-10-09T17:39:16.673Z,10.85
2022-10-09T17:41:47.378Z,13.57
2022-10-09T17:44:15.229Z,12.20
2022-10-09T17:46:42.174Z,10.30
2022-10-09T17:49:10.088Z,10.93
2022-10-09T17:51:39.492Z,11.52
2022-10-09T17:54:11.977Z,24.45
2022-10-09T17:56:39.260Z,38.88
2022-10-09T17:59:06.371Z,54.28
2022-10-09T18:01:33.622Z,67.47
2022-10-09T18:04:00.170Z,60.65
2022-10-09T18:06:27.319Z,41.97
2022-10-09T18:08:55.688Z,35.70
2022-10-09T18:11:23.660Z,22.13
2022-10-09T18:13:50.803Z,16.25
2022-10-09T18:16:22.383Z,14.23
2022-10-09T18:18:49.001Z,16.10
2022-10-09T18:21:16.904Z,11.77
2022-10-09T18:23:45.415Z,13.98
2022-10-09T18:26:15.180Z,12.85
2022-10-09T18:28:44.730Z,12.25
2022-10-09T18:31:20.119Z,13.93
2022-10-09T18:33:46.788Z,14.52
2022-10-09T18:36:19.791Z,10.52
2022-10-09T18:38:48.654Z,11.05
2022-10-09T18:41:15.727Z,9.18
2022-10-09T18:43:42.055Z,9.43
2022-10-09T18:46:09.054Z,11.27
2022-10-09T18:48:39.482Z,9.60
2022-10-09T18:51:09.006Z,13.65
2022-10-09T18:53:37.835Z,10.63
2022-10-09T18:56:06.708Z,12.13
2022-10-09T18:58:34.618Z,10.88
2022-10-09T19:01:04.287Z,10.68
2022-10-09T19:03:33.183Z,11.98
2022-10-09T19:05:59.747Z,10.95
2022-10-09T19:08:26.224Z,9.48
2022-10-09T19:10:53.097Z,8.93
2022-10-09T19:13:20.588Z,10.10
2022-10-09T19:15:52.101Z,11.43
2022-10-09T19:18:18.679Z,11.88
2022-10-09T19:20:45.191Z,11.38
2022-10-09T19:23:14.462Z,9.55
2022-10-09T19:25:52.660Z,10.68
2022-10-09T19:28:20.564Z,7.60
2022-10-09T19:30:47.379Z,9.40
2022-10-09T19:33:14.419Z,13.23
2022-10-09T19:35:48.328Z,11.10
2022-10-09T19:38:15.131Z,7.28
2022-10-09T19:40:41.630Z,9.20
2022-10-09T19:43:08.279Z,10.15
2022-10-09T19:45:35.138Z,7.60
2022-10-09T19:48:01.705Z,5.47
2022-10-09T19:50:28.382Z,7.00
2022-10-09T19:52:55.306Z,6.65
2022-10-09T19:55:22.305Z,15.23
2022-10-09T19:57:49.297Z,11.38
2022-10-09T20:00:16.154Z,7.05
2022-10-09T20:02:42.675Z,7.63
2022-10-09T20:05:09.229Z,10.75
2022-10-09T20:07:35.628Z,9.18
2022-10-09T20:10:02.504Z,10.35
2022-10-09T20:12:28.968Z,11.93
2022-10-09T20:14:55.380Z,10.70
2022-10-09T20:17:21.895Z,8.85
2022-10-09T20:19:48.261Z,11.93
2022-10-09T20:22:14.960Z,7.28
2022-10-09T20:24:41.321Z,8.18
2022-10-09T20:27:07.767Z,6.63
2022-10-09T20:29:34.265Z,10.82
2022-10-09T20:32:00.626Z,12.25
2022-10-09T20:34:27.648Z,12.23
2022-10-09T20:36:54.491Z,6.65
2022-10-09T20:39:21.378Z,12.10
2022-10-09T20:41:48.209Z,9.05
2022-10-09T20:44:16.191Z,7.80
2022-10-09T20:46:42.954Z,9.07
2022-10-09T20:49:13.941Z,7.43
2022-10-09T20:51:41.490Z,6.68
2022-10-09T20:54:13.653Z,8.15
2022-10-09T20:56:40.198Z,8.02
2022-10-09T20:59:06.644Z,9.85
2022-10-09T21:01:33.219Z,8.65
2022-10-09T21:04:04.650Z,12.75
2022-10-09T21:06:31.590Z,9.70
2022-10-09T21:08:58.718Z,6.93
2022-10-09T21:11:25.565Z,11.07
2022-10-09T21:13:51.910Z,9.32
2022-10-09T21:16:21.499Z,5.70
2022-10-09T21:18:48.448Z,6.45
2022-10-09T21:21:17.428Z,9.88
2022-10-09T21:23:44.797Z,11.63
2022-10-09T21:26:18.435Z,9.68
2022-10-09T21:28:45.356Z,4.55
2022-10-09T21:31:15.879Z,6.85
2022-10-09T21:33:42.513Z,9.80
2022-10-09T21:36:11.085Z,10.48
2022-10-09T21:38:37.803Z,8.68
2022-10-09T21:41:04.540Z,7.85
2022-10-09T21:43:30.967Z,8.63
2022-10-09T21:45:57.338Z,10.73
2022-10-09T21:48:23.759Z,9.48
2022-10-09T21:50:50.245Z,7.00
2022-10-09T21:53:16.685Z,10.75
2022-10-09T21:55:43.087Z,8.70
2022-10-09T21:58:10.341Z,7.55
2022-10-09T22:00:36.899Z,8.52
2022-10-09T22:03:03.401Z,10.13
2022-10-09T22:05:29.877Z,6.47
2022-10-09T22:07:56.513Z,8.75
2022-10-09T22:10:23.147Z,7.25
2022-10-09T22:12:50.242Z,9.75
2022-10-09T22:15:17.221Z,8.20
2022-10-09T22:17:43.648Z,8.90
2022-10-09T22:20:10.314Z,6.07
2022-10-09T22:22:36.772Z,9.70
2022-10-09T22:25:03.753Z,7.00
2022-10-09T22:27:30.356Z,12.13
2022-10-09T22:29:56.830Z,10.02
2022-10-09T22:32:23.367Z,10.25
2022-10-09T22:34:51.129Z,9.65
2022-10-09T22:37:17.599Z,5.28
2022-10-09T22:39:44.027Z,8.48
2022-10-09T22:42:10.454Z,7.45
2022-10-09T22:44:37.259Z,8.98
2022-10-09T22:47:03.756Z,13.18
2022-10-09T22:49:30.171Z,10.77
2022-10-09T22:51:56.604Z,8.57
2022-10-09T22:54:23.066Z,10.63
2022-10-09T22:56:49.483Z,7.07
2022-10-09T22:59:17.991Z,7.75
2022-10-09T23:01:48.409Z,5.97
2022-10-09T23:04:16.745Z,8.32
2022-10-09T23:06:44.606Z,5.63
2022-10-09T23:09:13.487Z,9.90
2022-10-09T23:11:40.244Z,6.75
2022-10-09T23:14:06.647Z,8.75
2022-10-09T23:16:33.619Z,7.68
2022-10-09T23:19:06.134Z,5.90
2022-10-09T23:21:33.958Z,8.35
2022-10-09T23:24:00.317Z,8.50
2022-10-09T23:26:29.393Z,7.00
2022-10-09T23:29:00.639Z,8.65
2022-10-09T23:31:29.194Z,5.75
2022-10-09T23:33:57.000Z,7.88
2022-10-09T23:36:26.279Z,7.72
2022-10-09T23:38:53.349Z,6.97
2022-10-09T23:41:25.111Z,5.20
2022-10-09T23:43:51.855Z,7.10
2022-10-09T23:46:22.128Z,7.70
2022-10-09T23:48:50.980Z,5.40
2022-10-09T23:51:19.546Z,9.38
2022-10-09T23:53:46.236Z,5.97
2022-10-09T23:56:23.066Z,4.82
2022-10-09T23:58:50.035Z,3.20
